sensor_id;sensor_type;location;lat;lon;timestamp;P1;durP1;ratioP1;P2;durP2;ratioP2
25231;SDS011;13176;51.140;6.290;2022-10-13T00:01:41;49.42;;;46.17;;
25231;SDS011;13176;51.140;6.290;2022-10-13T00:04:07;49.15;;;46.15;;
25231;SDS011;13176;51.140;6.290;2022-10-13T00:06:33;48.65;;;45.65;;
25231;SDS011;13176;51.140;6.290;2022-10-13T00:09:00;49.33;;;46.15;;
25231;SDS011;13176;51.140;6.290;2022-10-13T00:11:27;48.50;;;45.33;;
25231;SDS011;13176;51.140;6.290;2022-10-13T00:13:55;49.10;;;45.90;;
25231;SDS011;13176;51.140;6.290;2022-10-13T00:16:24;50.28;;;46.90;;
25231;SDS011;13176;51.140;6.290;2022-10-13T00:18:51;54.92;;;51.30;;
25231;SDS011;13176;51.140;6.290;2022-10-13T00:21:18;53.45;;;50.00;;
25231;SDS011;13176;51.140;6.290;2022-10-13T00:23:48;49.90;;;46.75;;
25231;SDS011;13176;51.140;6.290;2022-10-13T00:26:15;51.53;;;48.08;;
25231;SDS011;13176;51.140;6.290;2022-10-13T00:28:42;50.00;;;46.75;;
25231;SDS011;13176;51.140;6.290;2022-10-13T00:31:17;53.88;;;50.55;;
25231;SDS011;13176;51.140;6.290;2022-10-13T00:33:46;53.28;;;49.85;;
25231;SDS011;13176;51.140;6.290;2022-10-13T00:36:12;60.28;;;56.47;;
25231;SDS011;13176;51.140;6.290;2022-10-13T00:38:38;55.78;;;52.33;;
25231;SDS011;13176;51.140;6.290;2022-10-13T00:41:05;57.25;;;53.28;;
25231;SDS011;13176;51.140;6.290;2022-10-13T00:46:17;52.80;;;49.55;;
25231;SDS011;13176;51.140;6.290;2022-10-13T00:48:43;51.70;;;48.55;;
25231;SDS011;13176;51.140;6.290;2022-10-13T00:51:11;48.70;;;45.80;;
25231;SDS011;13176;51.140;6.290;2022-10-13T00:53:39;44.83;;;41.90;;
25231;SDS011;13176;51.140;6.290;2022-10-13T00:56:08;44.33;;;41.15;;
25231;SDS011;13176;51.140;6.290;2022-10-13T00:58:36;50.30;;;46.60;;
25231;SDS011;13176;51.140;6.290;2022-10-13T01:01:05;40.60;;;38.05;;
25231;SDS011;13176;51.140;6.290;2022-10-13T01:03:32;47.03;;;44.00;;
25231;SDS011;13176;51.140;6.290;2022-10-13T01:06:00;44.67;;;41.88;;
25231;SDS011;13176;51.140;6.290;2022-10-13T01:08:29;48.20;;;45.00;;
25231;SDS011;13176;51.140;6.290;2022-10-13T01:11:07;46.00;;;42.95;;
25231;SDS011;13176;51.140;6.290;2022-10-13T01:18:55;42.10;;;39.40;;
25231;SDS011;13176;51.140;6.290;2022-10-13T01:21:46;43.22;;;40.47;;
25231;SDS011;13176;51.140;6.290;2022-10-13T01:27:12;47.38;;;44.40;;
25231;SDS011;13176;51.140;6.290;2022-10-13T01:32:41;47.67;;;44.63;;
25231;SDS011;13176;51.140;6.290;2022-10-13T01:38:34;46.28;;;43.42;;
25231;SDS011;13176;51.140;6.290;2022-10-13T01:41:07;42.15;;;39.47;;
25231;SDS011;13176;51.140;6.290;2022-10-13T01:44:00;40.35;;;37.85;;
25231;SDS011;13176;51.140;6.290;2022-10-13T01:46:34;45.05;;;42.15;;
25231;SDS011;13176;51.140;6.290;2022-10-13T01:49:07;43.03;;;40.17;;
25231;SDS011;13176;51.140;6.290;2022-10-13T01:51:37;49.05;;;45.67;;
25231;SDS011;13176;51.140;6.290;2022-10-13T01:54:04;37.92;;;35.53;;
25231;SDS011;13176;51.140;6.290;2022-10-13T01:56:31;48.47;;;45.38;;
25231;SDS011;13176;51.140;6.290;2022-10-13T01:58:58;46.42;;;43.65;;
25231;SDS011;13176;51.140;6.290;2022-10-13T02:12:29;46.30;;;43.40;;
25231;SDS011;13176;51.140;6.290;2022-10-13T02:14:59;50.47;;;47.13;;
25231;SDS011;13176;51.140;6.290;2022-10-13T02:17:27;51.95;;;48.72;;
25231;SDS011;13176;51.140;6.290;2022-10-13T02:19:55;50.95;;;47.63;;
25231;SDS011;13176;51.140;6.290;2022-10-13T02:22:24;49.08;;;45.65;;
25231;SDS011;13176;51.140;6.290;2022-10-13T02:24:56;42.55;;;39.80;;
25231;SDS011;13176;51.140;6.290;2022-10-13T02:27:22;42.38;;;39.67;;
25231;SDS011;13176;51.140;6.290;2022-10-13T02:29:50;48.88;;;45.85;;
25231;SDS011;13176;51.140;6.290;2022-10-13T02:32:17;47.97;;;45.03;;
25231;SDS011;13176;51.140;6.290;2022-10-13T02:34:45;45.03;;;42.33;;
25231;SDS011;13176;51.140;6.290;2022-10-13T02:37:11;40.00;;;37.58;;
25231;SDS011;13176;51.140;6.290;2022-10-13T02:39:37;49.72;;;46.45;;
25231;SDS011;13176;51.140;6.290;2022-10-13T02:42:04;36.00;;;33.85;;
25231;SDS011;13176;51.140;6.290;2022-10-13T02:44:30;40.50;;;37.95;;
25231;SDS011;13176;51.140;6.290;2022-10-13T02:46:57;49.58;;;46.30;;
25231;SDS011;13176;51.140;6.290;2022-10-13T02:49:24;39.47;;;37.03;;
25231;SDS011;13176;51.140;6.290;2022-10-13T02:51:51;50.13;;;46.95;;
25231;SDS011;13176;51.140;6.290;2022-10-13T02:54:18;54.28;;;50.63;;
25231;SDS011;13176;51.140;6.290;2022-10-13T02:56:45;55.10;;;51.70;;
25231;SDS011;13176;51.140;6.290;2022-10-13T02:59:11;59.40;;;55.60;;
25231;SDS011;13176;51.140;6.290;2022-10-13T03:01:37;64.60;;;60.53;;
25231;SDS011;13176;51.140;6.290;2022-10-13T03:04:07;62.75;;;58.67;;
25231;SDS011;13176;51.140;6.290;2022-10-13T03:06:33;49.35;;;46.35;;
25231;SDS011;13176;51.140;6.290;2022-10-13T03:09:01;56.67;;;53.00;;
25231;SDS011;13176;51.140;6.290;2022-10-13T03:11:27;63.00;;;59.15;;
25231;SDS011;13176;51.140;6.290;2022-10-13T03:13:54;59.72;;;55.80;;
25231;SDS011;13176;51.140;6.290;2022-10-13T03:16:20;62.65;;;58.78;;
25231;SDS011;13176;51.140;6.290;2022-10-13T03:18:47;60.13;;;56.13;;
25231;SDS011;13176;51.140;6.290;2022-10-13T03:21:13;61.08;;;57.08;;
25231;SDS011;13176;51.140;6.290;2022-10-13T03:23:40;58.35;;;54.75;;
25231;SDS011;13176;51.140;6.290;2022-10-13T03:26:07;59.67;;;55.90;;
25231;SDS011;13176;51.140;6.290;2022-10-13T03:28:33;54.58;;;51.22;;
25231;SDS011;13176;51.140;6.290;2022-10-13T03:31:00;56.78;;;52.83;;
25231;SDS011;13176;51.140;6.290;2022-10-13T03:33:28;55.92;;;52.25;;
25231;SDS011;13176;51.140;6.290;2022-10-13T03:35:57;53.95;;;50.42;;
25231;SDS011;13176;51.140;6.290;2022-10-13T03:38:24;51.67;;;48.33;;
25231;SDS011;13176;51.140;6.290;2022-10-13T03:40:51;56.10;;;52.53;;
25231;SDS011;13176;51.140;6.290;2022-10-13T03:43:17;52.70;;;49.20;;
25231;SDS011;13176;51.140;6.290;2022-10-13T03:45:43;54.00;;;50.45;;
25231;SDS011;13176;51.140;6.290;2022-10-13T03:48:10;53.50;;;50.20;;
25231;SDS011;13176;51.140;6.290;2022-10-13T03:50:36;56.00;;;52.40;;
25231;SDS011;13176;51.140;6.290;2022-10-13T03:53:02;56.97;;;53.45;;
25231;SDS011;13176;51.140;6.290;2022-10-13T03:55:29;50.95;;;47.63;;
25231;SDS011;13176;51.140;6.290;2022-10-13T03:57:55;54.13;;;50.58;;
25231;SDS011;13176;51.140;6.290;2022-10-13T04:00:21;51.80;;;48.38;;
25231;SDS011;13176;51.140;6.290;2022-10-13T04:02:48;49.53;;;46.05;;
25231;SDS011;13176;51.140;6.290;2022-10-13T04:05:14;50.60;;;47.50;;
25231;SDS011;13176;51.140;6.290;2022-10-13T04:07:41;49.45;;;46.45;;
25231;SDS011;13176;51.140;6.290;2022-10-13T04:10:08;50.70;;;47.40;;
25231;SDS011;13176;51.140;6.290;2022-10-13T04:12:36;50.03;;;46.88;;
25231;SDS011;13176;51.140;6.290;2022-10-13T04:15:03;54.13;;;50.72;;
25231;SDS011;13176;51.140;6.290;2022-10-13T04:17:29;53.50;;;50.05;;
25231;SDS011;13176;51.140;6.290;2022-10-13T04:19:56;54.33;;;50.88;;
25231;SDS011;13176;51.140;6.290;2022-10-13T04:22:22;55.45;;;51.95;;
25231;SDS011;13176;51.140;6.290;2022-10-13T04:24:48;58.70;;;55.00;;
25231;SDS011;13176;51.140;6.290;2022-10-13T04:27:15;55.38;;;51.55;;
25231;SDS011;13176;51.140;6.290;2022-10-13T04:29:44;56.95;;;53.22;;
25231;SDS011;13176;51.140;6.290;2022-10-13T04:32:10;57.38;;;53.67;;
25231;SDS011;13176;51.140;6.290;2022-10-13T04:34:36;58.00;;;54.13;;
25231;SDS011;13176;51.140;6.290;2022-10-13T04:37:03;53.17;;;49.80;;
25231;SDS011;13176;51.140;6.290;2022-10-13T04:39:29;59.58;;;55.83;;
25231;SDS011;13176;51.140;6.290;2022-10-13T04:41:55;60.45;;;56.30;;
25231;SDS011;13176;51.140;6.290;2022-10-13T04:44:22;60.45;;;56.55;;
25231;SDS011;13176;51.140;6.290;2022-10-13T04:46:48;57.55;;;53.72;;
25231;SDS011;13176;51.140;6.290;2022-10-13T04:49:15;60.03;;;56.40;;
25231;SDS011;13176;51.140;6.290;2022-10-13T04:51:42;61.15;;;57.20;;
25231;SDS011;13176;51.140;6.290;2022-10-13T04:54:08;64.28;;;59.53;;
25231;SDS011;13176;51.140;6.290;2022-10-13T04:56:35;60.15;;;56.33;;
25231;SDS011;13176;51.140;6.290;2022-10-13T04:59:02;61.28;;;57.53;;
25231;SDS011;13176;51.140;6.290;2022-10-13T05:01:31;66.00;;;61.97;;
25231;SDS011;13176;51.140;6.290;2022-10-13T05:03:59;58.30;;;54.85;;
25231;SDS011;13176;51.140;6.290;2022-10-13T05:06:36;59.92;;;55.97;;
25231;SDS011;13176;51.140;6.290;2022-10-13T05:09:25;60.90;;;57.05;;
25231;SDS011;13176;51.140;6.290;2022-10-13T05:11:52;65.60;;;61.60;;
25231;SDS011;13176;51.140;6.290;2022-10-13T05:14:20;61.38;;;57.45;;
25231;SDS011;13176;51.140;6.290;2022-10-13T05:16:47;68.32;;;64.13;;
25231;SDS011;13176;51.140;6.290;2022-10-13T05:19:14;66.43;;;62.22;;
25231;SDS011;13176;51.140;6.290;2022-10-13T05:21:40;67.65;;;63.15;;
25231;SDS011;13176;51.140;6.290;2022-10-13T05:24:07;60.90;;;57.03;;
25231;SDS011;13176;51.140;6.290;2022-10-13T05:26:38;61.63;;;57.88;;
25231;SDS011;13176;51.140;6.290;2022-10-13T05:29:05;67.03;;;62.72;;
25231;SDS011;13176;51.140;6.290;2022-10-13T05:31:32;65.97;;;62.15;;
25231;SDS011;13176;51.140;6.290;2022-10-13T05:34:00;63.28;;;59.38;;
25231;SDS011;13176;51.140;6.290;2022-10-13T05:36:28;63.97;;;60.00;;
25231;SDS011;13176;51.140;6.290;2022-10-13T05:38:57;64.93;;;61.10;;
25231;SDS011;13176;51.140;6.290;2022-10-13T05:41:26;54.60;;;51.25;;
25231;SDS011;13176;51.140;6.290;2022-10-13T05:43:55;52.72;;;49.40;;
25231;SDS011;13176;51.140;6.290;2022-10-13T05:46:24;54.83;;;51.33;;
25231;SDS011;13176;51.140;6.290;2022-10-13T05:48:50;58.67;;;55.05;;
25231;SDS011;13176;51.140;6.290;2022-10-13T05:51:24;64.53;;;60.53;;
25231;SDS011;13176;51.140;6.290;2022-10-13T05:56:38;62.10;;;58.47;;
25231;SDS011;13176;51.140;6.290;2022-10-13T05:59:11;63.33;;;59.33;;
25231;SDS011;13176;51.140;6.290;2022-10-13T06:01:40;63.63;;;59.70;;
25231;SDS011;13176;51.140;6.290;2022-10-13T06:04:08;63.33;;;59.40;;
25231;SDS011;13176;51.140;6.290;2022-10-13T06:06:42;66.30;;;62.13;;
25231;SDS011;13176;51.140;6.290;2022-10-13T06:09:09;62.85;;;59.08;;
25231;SDS011;13176;51.140;6.290;2022-10-13T06:11:35;63.05;;;59.25;;
25231;SDS011;13176;51.140;6.290;2022-10-13T06:14:02;66.32;;;62.35;;
25231;SDS011;13176;51.140;6.290;2022-10-13T06:16:28;65.45;;;61.25;;
25231;SDS011;13176;51.140;6.290;2022-10-13T06:18:54;69.13;;;64.93;;
25231;SDS011;13176;51.140;6.290;2022-10-13T06:21:21;65.50;;;61.50;;
25231;SDS011;13176;51.140;6.290;2022-10-13T06:23:47;69.13;;;64.57;;
25231;SDS011;13176;51.140;6.290;2022-10-13T06:26:13;62.20;;;58.30;;
25231;SDS011;13176;51.140;6.290;2022-10-13T06:28:40;64.53;;;60.47;;
25231;SDS011;13176;51.140;6.290;2022-10-13T06:31:10;74.38;;;69.85;;
25231;SDS011;13176;51.140;6.290;2022-10-13T06:33:36;66.63;;;62.53;;
25231;SDS011;13176;51.140;6.290;2022-10-13T06:36:03;63.72;;;59.70;;
25231;SDS011;13176;51.140;6.290;2022-10-13T06:38:31;64.72;;;60.58;;
25231;SDS011;13176;51.140;6.290;2022-10-13T06:41:02;62.25;;;57.92;;
25231;SDS011;13176;51.140;6.290;2022-10-13T06:43:29;59.55;;;55.60;;
25231;SDS011;13176;51.140;6.290;2022-10-13T06:46:05;56.15;;;52.85;;
25231;SDS011;13176;51.140;6.290;2022-10-13T06:48:31;52.78;;;49.35;;
25231;SDS011;13176;51.140;6.290;2022-10-13T06:51:02;51.80;;;48.20;;
25231;SDS011;13176;51.140;6.290;2022-10-13T06:53:33;52.90;;;49.33;;
25231;SDS011;13176;51.140;6.290;2022-10-13T06:56:00;55.60;;;52.00;;
25231;SDS011;13176;51.140;6.290;2022-10-13T06:58:29;55.75;;;51.85;;
25231;SDS011;13176;51.140;6.290;2022-10-13T07:00:55;53.17;;;49.45;;
25231;SDS011;13176;51.140;6.290;2022-10-13T07:03:22;53.67;;;49.83;;
25231;SDS011;13176;51.140;6.290;2022-10-13T07:05:50;55.42;;;51.92;;
25231;SDS011;13176;51.140;6.290;2022-10-13T07:08:16;56.50;;;52.67;;
25231;SDS011;13176;51.140;6.290;2022-10-13T07:10:42;53.75;;;50.08;;
25231;SDS011;13176;51.140;6.290;2022-10-13T07:13:09;48.53;;;45.13;;
25231;SDS011;13176;51.140;6.290;2022-10-13T07:15:36;51.33;;;47.85;;
25231;SDS011;13176;51.140;6.290;2022-10-13T07:18:04;57.63;;;53.55;;
25231;SDS011;13176;51.140;6.290;2022-10-13T07:20:31;57.78;;;54.00;;
25231;SDS011;13176;51.140;6.290;2022-10-13T07:22:57;53.28;;;49.50;;
25231;SDS011;13176;51.140;6.290;2022-10-13T07:25:23;48.50;;;45.10;;
25231;SDS011;13176;51.140;6.290;2022-10-13T07:27:50;52.63;;;48.97;;
25231;SDS011;13176;51.140;6.290;2022-10-13T07:30:16;57.50;;;53.28;;
25231;SDS011;13176;51.140;6.290;2022-10-13T07:32:43;57.80;;;54.00;;
25231;SDS011;13176;51.140;6.290;2022-10-13T07:35:10;59.97;;;56.05;;
25231;SDS011;13176;51.140;6.290;2022-10-13T07:37:37;54.38;;;50.88;;
25231;SDS011;13176;51.140;6.290;2022-10-13T07:40:04;60.00;;;55.72;;
25231;SDS011;13176;51.140;6.290;2022-10-13T07:42:31;54.17;;;50.70;;
25231;SDS011;13176;51.140;6.290;2022-10-13T07:44:58;56.30;;;52.63;;
25231;SDS011;13176;51.140;6.290;2022-10-13T07:47:24;60.95;;;56.78;;
25231;SDS011;13176;51.140;6.290;2022-10-13T07:49:51;51.00;;;47.20;;
25231;SDS011;13176;51.140;6.290;2022-10-13T07:52:19;52.17;;;48.28;;
25231;SDS011;13176;51.140;6.290;2022-10-13T07:54:49;55.58;;;51.80;;
25231;SDS011;13176;51.140;6.290;2022-10-13T07:57:16;56.45;;;52.67;;
25231;SDS011;13176;51.140;6.290;2022-10-13T07:59:42;52.10;;;48.15;;
25231;SDS011;13176;51.140;6.290;2022-10-13T08:02:09;54.42;;;50.75;;
25231;SDS011;13176;51.140;6.290;2022-10-13T08:04:35;50.45;;;46.95;;
25231;SDS011;13176;51.140;6.290;2022-10-13T08:07:02;54.97;;;51.33;;
25231;SDS011;13176;51.140;6.290;2022-10-13T08:09:30;52.22;;;48.67;;
25231;SDS011;13176;51.140;6.290;2022-10-13T08:11:57;54.83;;;51.00;;
25231;SDS011;13176;51.140;6.290;2022-10-13T08:14:26;56.00;;;52.30;;
25231;SDS011;13176;51.140;6.290;2022-10-13T08:16:54;56.97;;;53.15;;
25231;SDS011;13176;51.140;6.290;2022-10-13T08:19:20;55.78;;;52.00;;
25231;SDS011;13176;51.140;6.290;2022-10-13T08:21:47;52.25;;;48.53;;
25231;SDS011;13176;51.140;6.290;2022-10-13T08:24:25;39.60;;;36.72;;
25231;SDS011;13176;51.140;6.290;2022-10-13T08:26:52;45.42;;;41.83;;
25231;SDS011;13176;51.140;6.290;2022-10-13T08:29:18;46.63;;;43.08;;
25231;SDS011;13176;51.140;6.290;2022-10-13T08:31:48;51.17;;;47.58;;
25231;SDS011;13176;51.140;6.290;2022-10-13T08:34:19;53.42;;;49.80;;
25231;SDS011;13176;51.140;6.290;2022-10-13T08:36:45;53.25;;;49.72;;
25231;SDS011;13176;51.140;6.290;2022-10-13T08:39:12;48.90;;;45.65;;
25231;SDS011;13176;51.140;6.290;2022-10-13T08:41:40;43.10;;;40.35;;
25231;SDS011;13176;51.140;6.290;2022-10-13T08:44:18;48.72;;;45.45;;
25231;SDS011;13176;51.140;6.290;2022-10-13T08:49:34;45.55;;;42.33;;
25231;SDS011;13176;51.140;6.290;2022-10-13T08:52:04;45.40;;;42.25;;
25231;SDS011;13176;51.140;6.290;2022-10-13T08:54:30;47.67;;;44.33;;
25231;SDS011;13176;51.140;6.290;2022-10-13T08:56:58;47.30;;;44.03;;
25231;SDS011;13176;51.140;6.290;2022-10-13T08:59:25;42.67;;;39.92;;
25231;SDS011;13176;51.140;6.290;2022-10-13T09:01:52;41.50;;;38.42;;
25231;SDS011;13176;51.140;6.290;2022-10-13T09:04:25;38.60;;;36.00;;
25231;SDS011;13176;51.140;6.290;2022-10-13T09:07:02;39.83;;;36.95;;
25231;SDS011;13176;51.140;6.290;2022-10-13T09:09:36;39.65;;;36.88;;
25231;SDS011;13176;51.140;6.290;2022-10-13T09:12:04;39.70;;;36.97;;
25231;SDS011;13176;51.140;6.290;2022-10-13T09:14:35;39.63;;;36.67;;
25231;SDS011;13176;51.140;6.290;2022-10-13T09:17:22;41.35;;;38.55;;
25231;SDS011;13176;51.140;6.290;2022-10-13T09:19:59;41.10;;;38.30;;
25231;SDS011;13176;51.140;6.290;2022-10-13T09:27:48;42.15;;;39.42;;
25231;SDS011;13176;51.140;6.290;2022-10-13T09:35:34;40.55;;;37.83;;
25231;SDS011;13176;51.140;6.290;2022-10-13T09:38:05;43.58;;;40.78;;
25231;SDS011;13176;51.140;6.290;2022-10-13T09:40:32;39.97;;;37.28;;
25231;SDS011;13176;51.140;6.290;2022-10-13T09:42:59;38.90;;;36.10;;
25231;SDS011;13176;51.140;6.290;2022-10-13T09:45:27;35.92;;;33.50;;
25231;SDS011;13176;51.140;6.290;2022-10-13T09:48:03;38.92;;;36.30;;
25231;SDS011;13176;51.140;6.290;2022-10-13T09:50:33;39.60;;;36.55;;
25231;SDS011;13176;51.140;6.290;2022-10-13T09:55:45;38.25;;;35.35;;
25231;SDS011;13176;51.140;6.290;2022-10-13T09:58:18;41.15;;;38.25;;
25231;SDS011;13176;51.140;6.290;2022-10-13T10:00:50;41.85;;;38.95;;
25231;SDS011;13176;51.140;6.290;2022-10-13T10:03:21;44.78;;;41.92;;
25231;SDS011;13176;51.140;6.290;2022-10-13T10:06:01;42.40;;;39.72;;
25231;SDS011;13176;51.140;6.290;2022-10-13T10:08:35;45.05;;;41.92;;
25231;SDS011;13176;51.140;6.290;2022-10-13T10:11:44;40.65;;;37.95;;
25231;SDS011;13176;51.140;6.290;2022-10-13T10:14:19;40.17;;;37.65;;
25231;SDS011;13176;51.140;6.290;2022-10-13T10:17:01;42.38;;;39.78;;
25231;SDS011;13176;51.140;6.290;2022-10-13T10:22:24;37.00;;;34.22;;
25231;SDS011;13176;51.140;6.290;2022-10-13T10:25:02;33.65;;;31.48;;
25231;SDS011;13176;51.140;6.290;2022-10-13T10:30:19;29.70;;;27.53;;
25231;SDS011;13176;51.140;6.290;2022-10-13T10:38:33;29.17;;;27.27;;
25231;SDS011;13176;51.140;6.290;2022-10-13T10:43:50;29.20;;;27.10;;
25231;SDS011;13176;51.140;6.290;2022-10-13T10:46:22;29.65;;;27.75;;
25231;SDS011;13176;51.140;6.290;2022-10-13T10:48:52;28.40;;;26.50;;
25231;SDS011;13176;51.140;6.290;2022-10-13T10:51:23;30.30;;;28.30;;
25231;SDS011;13176;51.140;6.290;2022-10-13T10:57:28;33.22;;;30.95;;
25231;SDS011;13176;51.140;6.290;2022-10-13T11:00:05;33.90;;;31.52;;
25231;SDS011;13176;51.140;6.290;2022-10-13T11:06:17;34.90;;;32.35;;
25231;SDS011;13176;51.140;6.290;2022-10-13T11:08:29;35.33;;;32.95;;
25231;SDS011;13176;51.140;6.290;2022-10-13T11:13:54;39.55;;;36.70;;
25231;SDS011;13176;51.140;6.290;2022-10-13T11:16:27;41.45;;;38.67;;
25231;SDS011;13176;51.140;6.290;2022-10-13T11:18:56;43.55;;;40.42;;
25231;SDS011;13176;51.140;6.290;2022-10-13T11:25:07;40.65;;;37.75;;
25231;SDS011;13176;51.140;6.290;2022-10-13T11:40:09;44.03;;;41.10;;
25231;SDS011;13176;51.140;6.290;2022-10-13T11:50:58;45.28;;;42.38;;
25231;SDS011;13176;51.140;6.290;2022-10-13T11:53:42;43.03;;;39.92;;
25231;SDS011;13176;51.140;6.290;2022-10-13T11:56:19;43.38;;;40.17;;
25231;SDS011;13176;51.140;6.290;2022-10-13T11:58:57;48.42;;;45.58;;
25231;SDS011;13176;51.140;6.290;2022-10-13T12:01:24;42.70;;;40.05;;
25231;SDS011;13176;51.140;6.290;2022-10-13T12:03:50;43.72;;;40.58;;
25231;SDS011;13176;51.140;6.290;2022-10-13T12:09:00;44.25;;;41.30;;
25231;SDS011;13176;51.140;6.290;2022-10-13T12:11:30;46.35;;;43.53;;
25231;SDS011;13176;51.140;6.290;2022-10-13T12:13:58;46.47;;;43.70;;
25231;SDS011;13176;51.140;6.290;2022-10-13T12:16:25;43.30;;;40.30;;
25231;SDS011;13176;51.140;6.290;2022-10-13T12:18:52;45.97;;;43.13;;
25231;SDS011;13176;51.140;6.290;2022-10-13T12:21:32;49.53;;;46.13;;
25231;SDS011;13176;51.140;6.290;2022-10-13T12:24:06;42.22;;;39.65;;
25231;SDS011;13176;51.140;6.290;2022-10-13T12:26:34;43.72;;;40.92;;
25231;SDS011;13176;51.140;6.290;2022-10-13T12:29:01;43.50;;;40.90;;
25231;SDS011;13176;51.140;6.290;2022-10-13T12:31:38;42.65;;;40.03;;
25231;SDS011;13176;51.140;6.290;2022-10-13T12:34:23;46.15;;;43.08;;
25231;SDS011;13176;51.140;6.290;2022-10-13T12:36:53;42.25;;;39.75;;
25231;SDS011;13176;51.140;6.290;2022-10-13T12:39:23;40.55;;;37.90;;
25231;SDS011;13176;51.140;6.290;2022-10-13T12:41:51;42.22;;;39.47;;
25231;SDS011;13176;51.140;6.290;2022-10-13T12:44:20;44.42;;;41.47;;
25231;SDS011;13176;51.140;6.290;2022-10-13T12:46:50;39.58;;;37.20;;
25231;SDS011;13176;51.140;6.290;2022-10-13T12:49:27;40.55;;;37.53;;
25231;SDS011;13176;51.140;6.290;2022-10-13T12:54:45;41.65;;;38.97;;
25231;SDS011;13176;51.140;6.290;2022-10-13T12:59:44;40.15;;;37.65;;
25231;SDS011;13176;51.140;6.290;2022-10-13T13:02:30;41.33;;;38.83;;
25231;SDS011;13176;51.140;6.290;2022-10-13T13:04:57;42.13;;;39.55;;
25231;SDS011;13176;51.140;6.290;2022-10-13T13:07:34;39.50;;;36.97;;
25231;SDS011;13176;51.140;6.290;2022-10-13T13:12:35;42.20;;;39.20;;
25231;SDS011;13176;51.140;6.290;2022-10-13T13:17:45;42.27;;;39.27;;
25231;SDS011;13176;51.140;6.290;2022-10-13T13:20:32;41.38;;;38.88;;
25231;SDS011;13176;51.140;6.290;2022-10-13T13:22:59;42.35;;;39.75;;
25231;SDS011;13176;51.140;6.290;2022-10-13T13:25:27;42.33;;;39.65;;
25231;SDS011;13176;51.140;6.290;2022-10-13T13:27:53;46.58;;;43.53;;
25231;SDS011;13176;51.140;6.290;2022-10-13T13:30:20;42.70;;;39.88;;
25231;SDS011;13176;51.140;6.290;2022-10-13T13:32:48;42.35;;;39.50;;
25231;SDS011;13176;51.140;6.290;2022-10-13T13:35:15;45.00;;;42.00;;
25231;SDS011;13176;51.140;6.290;2022-10-13T13:37:43;47.00;;;43.55;;
25231;SDS011;13176;51.140;6.290;2022-10-13T13:40:14;46.47;;;43.40;;
25231;SDS011;13176;51.140;6.290;2022-10-13T13:42:59;45.80;;;43.03;;
25231;SDS011;13176;51.140;6.290;2022-10-13T13:45:26;45.35;;;42.55;;
25231;SDS011;13176;51.140;6.290;2022-10-13T13:47:52;50.95;;;47.53;;
25231;SDS011;13176;51.140;6.290;2022-10-13T13:50:26;54.63;;;50.55;;
25231;SDS011;13176;51.140;6.290;2022-10-13T13:52:57;56.28;;;52.63;;
25231;SDS011;13176;51.140;6.290;2022-10-13T13:55:24;59.58;;;55.72;;
25231;SDS011;13176;51.140;6.290;2022-10-13T13:57:52;63.72;;;59.33;;
25231;SDS011;13176;51.140;6.290;2022-10-13T14:00:18;56.30;;;52.75;;
25231;SDS011;13176;51.140;6.290;2022-10-13T14:02:45;55.90;;;52.40;;
25231;SDS011;13176;51.140;6.290;2022-10-13T14:05:12;61.38;;;57.20;;
25231;SDS011;13176;51.140;6.290;2022-10-13T14:07:38;57.40;;;53.75;;
25231;SDS011;13176;51.140;6.290;2022-10-13T14:10:06;56.10;;;52.58;;
25231;SDS011;13176;51.140;6.290;2022-10-13T14:12:33;68.47;;;64.00;;
25231;SDS011;13176;51.140;6.290;2022-10-13T14:15:00;66.13;;;62.00;;
25231;SDS011;13176;51.140;6.290;2022-10-13T14:17:27;62.63;;;58.72;;
25231;SDS011;13176;51.140;6.290;2022-10-13T14:19:53;61.75;;;57.78;;
25231;SDS011;13176;51.140;6.290;2022-10-13T14:22:20;64.95;;;60.65;;
25231;SDS011;13176;51.140;6.290;2022-10-13T14:24:47;60.80;;;56.75;;
25231;SDS011;13176;51.140;6.290;2022-10-13T14:27:14;60.42;;;56.60;;
25231;SDS011;13176;51.140;6.290;2022-10-13T14:29:40;61.47;;;57.45;;
25231;SDS011;13176;51.140;6.290;2022-10-13T14:32:07;65.82;;;61.53;;
25231;SDS011;13176;51.140;6.290;2022-10-13T14:34:33;58.60;;;54.55;;
25231;SDS011;13176;51.140;6.290;2022-10-13T14:36:59;58.78;;;55.17;;
25231;SDS011;13176;51.140;6.290;2022-10-13T14:39:26;58.10;;;54.50;;
25231;SDS011;13176;51.140;6.290;2022-10-13T14:41:53;57.70;;;54.10;;
25231;SDS011;13176;51.140;6.290;2022-10-13T14:44:19;60.85;;;57.05;;
25231;SDS011;13176;51.140;6.290;2022-10-13T14:46:46;57.20;;;53.63;;
25231;SDS011;13176;51.140;6.290;2022-10-13T14:49:12;53.58;;;50.17;;
25231;SDS011;13176;51.140;6.290;2022-10-13T14:51:38;61.50;;;57.42;;
25231;SDS011;13176;51.140;6.290;2022-10-13T14:54:05;61.10;;;57.15;;
25231;SDS011;13176;51.140;6.290;2022-10-13T14:56:32;59.70;;;55.78;;
25231;SDS011;13176;51.140;6.290;2022-10-13T14:58:59;56.17;;;52.75;;
25231;SDS011;13176;51.140;6.290;2022-10-13T15:01:27;56.65;;;53.03;;
25231;SDS011;13176;51.140;6.290;2022-10-13T15:03:54;54.25;;;50.88;;
25231;SDS011;13176;51.140;6.290;2022-10-13T15:06:22;54.22;;;50.58;;
25231;SDS011;13176;51.140;6.290;2022-10-13T15:08:50;58.47;;;54.38;;
25231;SDS011;13176;51.140;6.290;2022-10-13T15:11:17;55.88;;;52.13;;
25231;SDS011;13176;51.140;6.290;2022-10-13T15:13:44;59.83;;;55.78;;
25231;SDS011;13176;51.140;6.290;2022-10-13T15:18:48;63.22;;;59.13;;
25231;SDS011;13176;51.140;6.290;2022-10-13T15:21:15;69.32;;;64.53;;
25231;SDS011;13176;51.140;6.290;2022-10-13T15:23:42;67.13;;;62.75;;
25231;SDS011;13176;51.140;6.290;2022-10-13T15:26:09;67.57;;;63.38;;
25231;SDS011;13176;51.140;6.290;2022-10-13T15:28:41;70.85;;;65.80;;
25231;SDS011;13176;51.140;6.290;2022-10-13T15:31:12;68.57;;;63.97;;
25231;SDS011;13176;51.140;6.290;2022-10-13T15:33:41;66.80;;;62.60;;
25231;SDS011;13176;51.140;6.290;2022-10-13T15:36:08;69.15;;;64.85;;
25231;SDS011;13176;51.140;6.290;2022-10-13T15:38:35;64.38;;;59.88;;
25231;SDS011;13176;51.140;6.290;2022-10-13T15:41:02;64.57;;;60.05;;
25231;SDS011;13176;51.140;6.290;2022-10-13T15:43:30;68.25;;;63.90;;
25231;SDS011;13176;51.140;6.290;2022-10-13T15:46:01;70.70;;;65.97;;
25231;SDS011;13176;51.140;6.290;2022-10-13T15:48:30;72.82;;;67.75;;
25231;SDS011;13176;51.140;6.290;2022-10-13T15:50:57;70.43;;;65.72;;
25231;SDS011;13176;51.140;6.290;2022-10-13T15:53:24;80.03;;;74.57;;
25231;SDS011;13176;51.140;6.290;2022-10-13T15:55:50;77.38;;;72.47;;
25231;SDS011;13176;51.140;6.290;2022-10-13T15:58:17;81.07;;;75.82;;
25231;SDS011;13176;51.140;6.290;2022-10-13T16:00:43;78.43;;;73.03;;
25231;SDS011;13176;51.140;6.290;2022-10-13T16:03:15;78.93;;;73.78;;
25231;SDS011;13176;51.140;6.290;2022-10-13T16:05:44;80.07;;;74.85;;
25231;SDS011;13176;51.140;6.290;2022-10-13T16:08:12;75.13;;;70.22;;
25231;SDS011;13176;51.140;6.290;2022-10-13T16:10:42;77.68;;;72.80;;
25231;SDS011;13176;51.140;6.290;2022-10-13T16:13:11;80.18;;;74.38;;
25231;SDS011;13176;51.140;6.290;2022-10-13T16:15:39;83.05;;;77.68;;
25231;SDS011;13176;51.140;6.290;2022-10-13T16:18:06;86.18;;;80.80;;
25231;SDS011;13176;51.140;6.290;2022-10-13T16:20:33;81.43;;;76.28;;
25231;SDS011;13176;51.140;6.290;2022-10-13T16:23:03;82.75;;;77.55;;